West Bloomfield, MI (48322)

07:37:EST den 23. januar 2017 (GMT -0500)
Fox Run Green | | Change Station

H.o.h 997 ft 42.56 °N, 83.39 °W | Updated 5 seconds ago

Overskyet
Overskyet
39.4 °F
Feels Like 39 °F
N
0.9
Vind Variabel Vind from Sør
Gusts 2.0 mph

I dag
High -- | Low -- °F
--% Chance of Precip.
I går
High -- | Low -- °F
Precip. -- tommer
Lufttrykk 29.64 tommer
Sikt 0.5 eng. mil
Skyet
Nedkjølingseffekt 39 °F
Duggpunkt 39 °F
Fuktighet 99%
Regn 0.00 tommer
Snødybde Not available.
7:55 AM 5:35 PM
Minkende sigd, 19% visible
METAR KPTK 231153Z 04004KT 1/2SM R09R/3000V3500FT FG VV002 04/03 A2962 RMK AO2 SLP037 T00390028 10061 20039 53001 $
Lufttrykk 29.64 tommer
Sikt 0.5 eng. mil
Skyet
Nedkjølingseffekt 39 °F
Duggpunkt 39 °F
Fuktighet 99%
Regn 0.00 tommer
Snødybde Not available.
7:55 AM 5:35 PM
Minkende sigd, 19% visible
METAR KPTK 231153Z 04004KT 1/2SM R09R/3000V3500FT FG VV002 04/03 A2962 RMK AO2 SLP037 T00390028 10061 20039 53001 $

Get Your Daily Forecast Email!

Thanks for signing up!

Be on the lookout for a verification email in your inbox.

You'll start receiving the daily forecast at 8 AM.

×

10-Day Weather Forecast

Almanac

Astronomi

Jan. 23, 2017 Oppgang Nedgang
Virkelig tid
Tussmørke
Nautisk skumring
Astronomisk skumring
Månen
Lengde av synlig lys
Dagens lengde
Tomorrow will be .
, % of the Moon is Illuminated

Dagens maks og min

State Highs State Lows

Community

WunderPhotos

Upload Photos

1,962,540 photos uploaded!

WunderBlog® & News

Nearby

Luftkvalitet

  Luftkvalitet AQ Indeks Forurensing
Not available.

Snødybde

Stasjon Depth Høyde over havet

Earthquake Activity

By Distance Mag. Time & Date
Minimum magnitude displayed is 2.5.

Coastal Water Temperatures

Sted Temperatur

Stations

Nearby Weather Stations

Stasjonens lokasjon Temp. Nedkjølingseffekt Duggpunkt Fuktighet Vind Precip. H.o.h Oppdatert Type
                   

Watches & Warnings

There are currently no watches in effect.